createdAt,value
2018-09-18T00:00:21.725Z,78.44
2018-09-18T00:01:21.766Z,78.15
2018-09-18T00:02:21.780Z,78.34
2018-09-18T00:03:21.809Z,78.05
2018-09-18T00:04:21.839Z,78.25
2018-09-18T00:05:21.869Z,78.05
2018-09-18T00:06:21.895Z,77.95
2018-09-18T00:07:21.927Z,78.34
2018-09-18T00:08:21.955Z,77.86
2018-09-18T00:09:21.981Z,77.86
2018-09-18T00:10:22.009Z,77.67
2018-09-18T00:11:22.039Z,77.86
2018-09-18T00:12:22.066Z,77.67
2018-09-18T00:13:22.098Z,77.29
2018-09-18T00:14:22.125Z,77.67
2018-09-18T00:15:22.156Z,77.48
2018-09-18T00:16:22.184Z,77.38
2018-09-18T00:17:22.213Z,77.38
2018-09-18T00:18:22.542Z,77.58
2018-09-18T00:19:22.270Z,77.48
2018-09-18T00:20:22.297Z,77.67
2018-09-18T00:21:22.327Z,77.76
2018-09-18T00:22:22.353Z,77.76
2018-09-18T00:23:22.385Z,77.38
2018-09-18T00:24:22.412Z,77.67
2018-09-18T00:25:22.442Z,77.29
2018-09-18T00:26:22.471Z,77.48
2018-09-18T00:27:22.498Z,77.09
2018-09-18T00:28:22.526Z,77.38
2018-09-18T00:29:22.554Z,77.48
2018-09-18T00:30:22.584Z,77.09
2018-09-18T00:31:22.616Z,76.81
2018-09-18T00:32:22.642Z,76.90
2018-09-18T00:33:22.672Z,77.00
2018-09-18T00:34:22.701Z,77.09
2018-09-18T00:35:22.729Z,77.09
2018-09-18T00:36:22.755Z,77.00
2018-09-18T00:37:22.786Z,76.71
2018-09-18T00:38:22.814Z,77.19
2018-09-18T00:39:22.842Z,76.52
2018-09-18T00:40:22.871Z,76.52
2018-09-18T00:41:22.898Z,76.81
2018-09-18T00:42:22.931Z,76.52
2018-09-18T00:43:22.958Z,76.52
2018-09-18T00:44:22.984Z,76.90
2018-09-18T00:45:23.015Z,76.42
2018-09-18T00:46:23.042Z,76.90
2018-09-18T00:47:23.071Z,76.62
2018-09-18T00:48:23.101Z,76.32
2018-09-18T00:49:23.133Z,76.81
2018-09-18T00:50:23.155Z,76.71
2018-09-18T00:51:23.187Z,76.52
2018-09-18T00:52:23.214Z,76.90
2018-09-18T00:53:23.240Z,76.62
2018-09-18T00:54:23.269Z,77.09
2018-09-18T00:55:23.301Z,76.62
2018-09-18T00:56:23.329Z,76.52
2018-09-18T00:57:23.357Z,76.90
2018-09-18T00:58:23.384Z,77.09
2018-09-18T00:59:23.413Z,76.90
2018-09-18T01:00:23.440Z,77.00
2018-09-18T01:01:23.472Z,76.71
2018-09-18T01:02:23.500Z,77.09
2018-09-18T01:03:23.528Z,77.58
2018-09-18T01:04:23.554Z,77.29
2018-09-18T01:05:23.584Z,77.19
2018-09-18T01:06:23.615Z,77.00
2018-09-18T01:07:23.647Z,77.19
2018-09-18T01:08:23.670Z,77.19
2018-09-18T01:09:23.697Z,77.38
2018-09-18T01:10:23.730Z,76.90
2018-09-18T01:11:23.756Z,77.09
2018-09-18T01:12:23.785Z,77.00
2018-09-18T01:13:23.812Z,77.48
2018-09-18T01:14:23.840Z,76.90
2018-09-18T01:15:23.872Z,77.38
2018-09-18T01:16:23.900Z,77.38
2018-09-18T01:17:23.928Z,77.58
2018-09-18T01:18:23.958Z,77.29
2018-09-18T01:19:23.983Z,77.48
2018-09-18T01:20:24.014Z,77.48
2018-09-18T01:21:24.041Z,77.09
2018-09-18T01:22:24.068Z,77.29
2018-09-18T01:23:24.097Z,77.19
2018-09-18T01:24:24.125Z,77.38
2018-09-18T01:25:24.157Z,77.48
2018-09-18T01:26:24.185Z,77.48
2018-09-18T01:27:24.214Z,77.09
2018-09-18T01:28:24.251Z,77.09
2018-09-18T01:29:24.268Z,77.48
2018-09-18T01:30:24.298Z,77.58
2018-09-18T01:31:24.328Z,77.67
2018-09-18T01:32:24.354Z,77.44
2018-09-18T01:33:24.385Z,77.48
2018-09-18T01:34:24.414Z,77.73
2018-09-18T01:35:24.443Z,77.82
2018-09-18T01:36:24.470Z,77.82
2018-09-18T01:37:24.499Z,78.02
2018-09-18T01:38:24.526Z,78.11
2018-09-18T01:39:24.557Z,78.02
2018-09-18T01:40:24.583Z,78.30
2018-09-18T01:41:24.613Z,78.40
2018-09-18T01:42:24.638Z,78.20
2018-09-18T01:43:24.668Z,77.82
2018-09-18T01:44:24.696Z,78.20
2018-09-18T01:45:24.738Z,78.30
2018-09-18T01:46:24.753Z,78.59
2018-09-18T01:47:24.783Z,78.40
2018-09-18T01:48:24.810Z,78.40
2018-09-18T01:49:24.839Z,78.49
2018-09-18T01:50:24.869Z,78.49
2018-09-18T01:51:24.897Z,78.97
2018-09-18T01:52:24.926Z,79.26
2018-09-18T01:53:24.952Z,79.07
2018-09-18T01:54:24.982Z,79.16
2018-09-18T01:55:25.017Z,79.16
2018-09-18T01:56:25.038Z,79.26
2018-09-18T01:57:25.069Z,79.36
2018-09-18T01:58:25.097Z,78.97
2018-09-18T01:59:25.127Z,79.07
2018-09-18T02:00:25.152Z,79.07
2018-09-18T02:01:25.185Z,78.97
2018-09-18T02:02:25.212Z,78.97
2018-09-18T02:03:25.241Z,78.97
2018-09-18T02:04:25.272Z,79.07
2018-09-18T02:05:25.295Z,79.36
2018-09-18T02:06:25.324Z,79.26
2018-09-18T02:07:25.669Z,79.36
2018-09-18T02:08:25.380Z,79.32
2018-09-18T02:09:25.411Z,79.55
2018-09-18T02:10:25.437Z,79.26
2018-09-18T02:11:25.470Z,79.07
2018-09-18T02:12:25.494Z,79.45
2018-09-18T02:13:25.525Z,79.26
2018-09-18T02:14:25.551Z,79.74
2018-09-18T02:15:25.581Z,79.74
2018-09-18T02:16:25.610Z,79.83
2018-09-18T02:17:25.636Z,79.45
2018-09-18T02:18:25.667Z,79.64
2018-09-18T02:19:25.694Z,79.83
2018-09-18T02:20:25.724Z,79.93
2018-09-18T02:21:25.749Z,79.83
2018-09-18T02:22:25.780Z,79.83
2018-09-18T02:23:25.808Z,79.83
2018-09-18T02:24:25.838Z,80.12
2018-09-18T02:25:25.867Z,79.55
2018-09-18T02:26:25.895Z,80.22
2018-09-18T02:27:25.923Z,80.32
2018-09-18T02:28:25.951Z,79.99
2018-09-18T02:29:25.980Z,80.18
2018-09-18T02:30:26.011Z,80.66
2018-09-18T02:31:26.037Z,80.60
2018-09-18T02:32:26.061Z,80.89
2018-09-18T02:33:26.093Z,80.70
2018-09-18T02:34:26.122Z,80.56
2018-09-18T02:35:26.156Z,80.70
2018-09-18T02:36:26.177Z,80.70
2018-09-18T02:37:26.209Z,80.56
2018-09-18T02:38:26.235Z,80.70
2018-09-18T02:39:26.266Z,80.47
2018-09-18T02:40:26.290Z,80.41
2018-09-18T02:41:26.321Z,80.47
2018-09-18T02:42:26.350Z,80.47
2018-09-18T02:43:26.378Z,80.60
2018-09-18T02:44:26.404Z,80.37
2018-09-18T02:45:26.434Z,80.27
2018-09-18T02:46:26.460Z,80.47
2018-09-18T02:47:26.490Z,80.37
2018-09-18T02:48:26.519Z,80.51
2018-09-18T02:49:26.547Z,80.66
2018-09-18T02:50:26.573Z,80.37
2018-09-18T02:51:26.604Z,80.47
2018-09-18T02:52:26.629Z,80.76
2018-09-18T02:53:26.657Z,80.47
2018-09-18T02:54:26.686Z,80.47
2018-09-18T02:55:26.721Z,80.85
2018-09-18T02:56:26.742Z,80.47
2018-09-18T02:57:26.774Z,80.85
2018-09-18T02:58:26.801Z,81.04
2018-09-18T02:59:26.828Z,80.94
2018-09-18T03:00:26.856Z,80.94
2018-09-18T03:01:26.884Z,81.04
2018-09-18T03:02:26.915Z,81.23
2018-09-18T03:03:26.946Z,81.71
2018-09-18T03:04:26.969Z,81.52
2018-09-18T03:05:27.001Z,81.52
2018-09-18T03:06:27.028Z,81.13
2018-09-18T03:07:27.054Z,81.33
2018-09-18T03:08:27.083Z,81.81
2018-09-18T03:09:27.110Z,81.62
2018-09-18T03:10:27.142Z,81.62
2018-09-18T03:11:27.212Z,81.62
2018-09-18T03:12:27.196Z,81.90
2018-09-18T03:13:27.229Z,81.43
2018-09-18T03:14:27.253Z,81.71
2018-09-18T03:15:27.285Z,81.62
2018-09-18T03:16:27.311Z,81.43
2018-09-18T03:17:27.338Z,81.62
2018-09-18T03:18:27.366Z,81.81
2018-09-18T03:19:27.394Z,81.90
2018-09-18T03:20:27.424Z,81.62
2018-09-18T03:21:27.449Z,81.23
2018-09-18T03:22:27.481Z,81.81
2018-09-18T03:23:27.510Z,81.81
2018-09-18T03:24:27.537Z,81.90
2018-09-18T03:25:27.567Z,81.71
2018-09-18T03:26:27.593Z,82.09
2018-09-18T03:27:27.772Z,81.90
2018-09-18T03:28:27.648Z,81.81
2018-09-18T03:29:27.678Z,82.29
2018-09-18T03:30:27.708Z,82.38
2018-09-18T03:31:27.749Z,82.38
2018-09-18T03:32:27.765Z,82.43
2018-09-18T03:33:27.797Z,82.48
2018-09-18T03:34:27.819Z,82.48
2018-09-18T03:35:27.855Z,82.43
2018-09-18T03:36:27.875Z,82.73
2018-09-18T03:37:27.902Z,82.53
2018-09-18T03:38:27.935Z,82.76
2018-09-18T03:39:27.962Z,82.63
2018-09-18T03:40:27.990Z,82.53
2018-09-18T03:41:28.019Z,82.86
2018-09-18T03:42:28.047Z,82.38
2018-09-18T03:43:28.076Z,82.34
2018-09-18T03:44:28.105Z,82.29
2018-09-18T03:45:28.128Z,82.06
2018-09-18T03:46:28.158Z,82.48
2018-09-18T03:47:28.188Z,82.06
2018-09-18T03:48:28.219Z,82.48
2018-09-18T03:49:28.242Z,82.48
2018-09-18T03:50:28.271Z,82.63
2018-09-18T03:51:28.300Z,82.73
2018-09-18T03:52:28.326Z,82.34
2018-09-18T03:53:28.355Z,82.63
2018-09-18T03:54:28.383Z,82.82
2018-09-18T03:55:28.416Z,82.43
2018-09-18T03:56:28.440Z,82.29
2018-09-18T03:57:28.471Z,82.48
2018-09-18T03:58:28.497Z,82.34
2018-09-18T03:59:28.528Z,82.53
2018-09-18T04:00:28.555Z,82.92
2018-09-18T04:01:28.584Z,83.20
2018-09-18T04:02:28.613Z,82.82
2018-09-18T04:03:28.639Z,82.53
2018-09-18T04:04:28.668Z,82.63
2018-09-18T04:05:28.695Z,82.73
2018-09-18T04:06:28.724Z,83.20
2018-09-18T04:07:28.754Z,83.39
2018-09-18T04:08:28.782Z,82.82
2018-09-18T04:09:28.807Z,82.53
2018-09-18T04:10:28.836Z,82.63
2018-09-18T04:11:28.868Z,83.39
2018-09-18T04:12:28.900Z,82.63
2018-09-18T04:13:28.923Z,82.73
2018-09-18T04:14:28.949Z,82.53
2018-09-18T04:15:28.992Z,82.34
2018-09-18T04:16:29.008Z,82.73
2018-09-18T04:17:29.085Z,82.82
2018-09-18T04:18:29.063Z,82.73
2018-09-18T04:19:29.090Z,82.53
2018-09-18T04:20:29.119Z,82.82
2018-09-18T04:21:29.147Z,82.73
2018-09-18T04:22:29.182Z,82.43
2018-09-18T04:23:29.206Z,82.73
2018-09-18T04:24:29.231Z,82.63
2018-09-18T04:25:29.263Z,82.73
2018-09-18T04:26:29.290Z,82.73
2018-09-18T04:27:29.317Z,82.53
2018-09-18T04:28:29.347Z,82.63
2018-09-18T04:29:29.376Z,82.73
2018-09-18T04:30:29.404Z,82.92
2018-09-18T04:31:29.443Z,82.63
2018-09-18T04:32:29.457Z,82.73
2018-09-18T04:33:29.486Z,82.82
2018-09-18T04:34:29.513Z,82.63
2018-09-18T04:35:29.543Z,82.53
2018-09-18T04:36:29.570Z,82.82
2018-09-18T04:37:29.601Z,83.11
2018-09-18T04:38:29.630Z,83.39
2018-09-18T04:39:29.657Z,83.20
2018-09-18T04:40:29.686Z,82.73
2018-09-18T04:41:29.714Z,83.01
2018-09-18T04:42:29.741Z,83.30
2018-09-18T04:43:29.767Z,82.92
2018-09-18T04:44:29.798Z,83.11
2018-09-18T04:45:29.825Z,83.11
2018-09-18T04:46:29.854Z,82.82
2018-09-18T04:47:29.881Z,82.53
2018-09-18T04:48:29.916Z,82.63
2018-09-18T04:49:29.939Z,83.39
2018-09-18T04:50:29.968Z,83.59
2018-09-18T04:51:29.995Z,83.49
2018-09-18T04:52:30.021Z,83.49
2018-09-18T04:53:30.050Z,83.68
2018-09-18T04:54:30.080Z,83.59
2018-09-18T04:55:30.108Z,83.97
2018-09-18T04:56:30.140Z,83.30
2018-09-18T04:57:30.163Z,83.59
2018-09-18T04:58:30.193Z,83.78
2018-09-18T04:59:30.221Z,84.06
2018-09-18T05:00:30.248Z,83.68
2018-09-18T05:01:30.274Z,83.39
2018-09-18T05:02:30.303Z,83.59
2018-09-18T05:03:30.334Z,83.59
2018-09-18T05:04:30.358Z,83.30
2018-09-18T05:05:30.390Z,83.49
2018-09-18T05:06:30.418Z,83.87
2018-09-18T05:07:30.446Z,83.20
2018-09-18T05:08:30.473Z,84.06
2018-09-18T05:09:30.505Z,83.39
2018-09-18T05:10:30.528Z,83.87
2018-09-18T05:11:30.558Z,83.59
2018-09-18T05:12:30.583Z,83.39
2018-09-18T05:13:30.611Z,83.78
2018-09-18T05:14:30.643Z,82.73
2018-09-18T05:15:30.672Z,83.20
2018-09-18T05:16:30.701Z,83.68
2018-09-18T05:17:30.727Z,83.39
2018-09-18T05:18:30.753Z,82.82
2018-09-18T05:19:30.782Z,83.20
2018-09-18T05:20:30.811Z,83.01
2018-09-18T05:21:30.841Z,82.92
2018-09-18T05:22:30.868Z,82.82
2018-09-18T05:23:30.898Z,82.92
2018-09-18T05:24:30.922Z,83.20
2018-09-18T05:25:31.009Z,83.20
2018-09-18T05:26:30.977Z,83.01
2018-09-18T05:27:31.011Z,83.39
2018-09-18T05:28:31.035Z,83.01
2018-09-18T05:29:31.065Z,83.30
2018-09-18T05:30:31.090Z,82.92
2018-09-18T05:31:31.126Z,83.01
2018-09-18T05:32:31.149Z,82.92
2018-09-18T05:33:31.181Z,83.68
2018-09-18T05:34:31.203Z,83.01
2018-09-18T05:35:31.234Z,83.30
2018-09-18T05:36:31.259Z,82.92
2018-09-18T05:37:31.286Z,83.11
2018-09-18T05:38:31.316Z,83.30
2018-09-18T05:39:31.347Z,83.11
2018-09-18T05:40:31.372Z,83.39
2018-09-18T05:41:31.400Z,83.20
2018-09-18T05:42:31.433Z,83.30
2018-09-18T05:43:31.458Z,83.01
2018-09-18T05:44:31.484Z,82.73
2018-09-18T05:45:31.517Z,83.20
2018-09-18T05:46:31.540Z,83.20
2018-09-18T05:47:31.571Z,83.01
2018-09-18T05:48:31.599Z,83.11
2018-09-18T05:49:31.625Z,83.20
2018-09-18T05:50:31.656Z,83.20
2018-09-18T05:51:31.684Z,83.20
2018-09-18T05:52:31.709Z,83.01
2018-09-18T05:53:31.740Z,83.49
2018-09-18T05:54:31.766Z,83.25
2018-09-18T05:55:31.794Z,83.20
2018-09-18T05:56:31.822Z,83.20
2018-09-18T05:57:31.855Z,83.15
2018-09-18T05:58:31.877Z,83.25
2018-09-18T05:59:31.907Z,82.67
2018-09-18T06:00:31.935Z,83.05
2018-09-18T06:01:31.964Z,82.76
2018-09-18T06:02:31.992Z,82.57
2018-09-18T06:03:32.022Z,83.25
2018-09-18T06:04:32.049Z,83.15
2018-09-18T06:05:32.081Z,82.57
2018-09-18T06:06:32.450Z,82.76
2018-09-18T06:07:32.135Z,82.67
2018-09-18T06:08:32.160Z,82.29
2018-09-18T06:09:32.189Z,82.48
2018-09-18T06:10:32.217Z,81.81
2018-09-18T06:11:32.247Z,82.48
2018-09-18T06:12:32.338Z,81.33
2018-09-18T06:13:32.301Z,81.66
2018-09-18T06:14:32.332Z,81.08
2018-09-18T06:15:32.358Z,79.83
2018-09-18T06:16:32.386Z,79.21
2018-09-18T06:17:32.416Z,78.05
2018-09-18T06:18:32.442Z,77.71
2018-09-18T06:19:32.476Z,76.84
2018-09-18T06:20:32.499Z,76.65
2018-09-18T06:21:32.528Z,76.37
2018-09-18T06:22:32.559Z,75.98
2018-09-18T06:23:32.587Z,76.37
2018-09-18T06:24:32.612Z,76.40
2018-09-18T06:25:32.647Z,76.21
2018-09-18T06:26:32.676Z,75.73
2018-09-18T06:27:32.705Z,76.02
2018-09-18T06:28:32.732Z,75.92
2018-09-18T06:29:32.761Z,75.54
2018-09-18T06:30:32.790Z,75.35
2018-09-18T06:31:32.821Z,74.87
2018-09-18T06:32:32.852Z,75.15
2018-09-18T06:33:32.878Z,74.62
2018-09-18T06:34:32.906Z,74.43
2018-09-18T06:35:32.937Z,74.43
2018-09-18T06:36:32.968Z,74.96
2018-09-18T06:37:32.998Z,75.82
2018-09-18T06:38:33.028Z,75.73
2018-09-18T06:39:33.056Z,75.06
2018-09-18T06:40:33.090Z,75.35
2018-09-18T06:41:33.118Z,75.54
2018-09-18T06:42:33.151Z,74.90
2018-09-18T06:43:33.179Z,74.43
2018-09-18T06:44:33.206Z,74.04
2018-09-18T06:45:33.239Z,74.33
2018-09-18T06:46:33.267Z,74.37
2018-09-18T06:47:33.298Z,73.50
2018-09-18T06:48:33.329Z,73.21
2018-09-18T06:49:33.361Z,73.41
2018-09-18T06:50:33.393Z,73.02
2018-09-18T06:51:33.420Z,72.77
2018-09-18T06:52:33.452Z,75.27
2018-09-18T06:53:33.482Z,74.21
2018-09-18T06:54:33.549Z,77.19
2018-09-18T06:55:33.543Z,73.44
2018-09-18T06:56:33.575Z,74.15
2018-09-18T06:57:33.606Z,77.90
2018-09-18T06:58:33.638Z,72.32
2018-09-18T06:59:33.667Z,74.38
2018-09-18T07:00:33.696Z,71.97
2018-09-18T07:01:33.730Z,74.67
2018-09-18T07:02:33.760Z,75.05
2018-09-18T07:03:33.789Z,71.69
2018-09-18T07:04:33.819Z,70.24
2018-09-18T07:05:33.857Z,70.92
2018-09-18T07:06:33.884Z,71.40
2018-09-18T07:07:33.916Z,72.45
2018-09-18T07:08:33.950Z,71.72
2018-09-18T07:09:33.976Z,71.49
2018-09-18T07:10:34.009Z,71.78
2018-09-18T07:11:34.046Z,70.53
2018-09-18T07:12:34.073Z,70.34
2018-09-18T07:13:34.103Z,71.40
2018-09-18T07:14:34.132Z,71.26
2018-09-18T07:15:34.163Z,72.61
2018-09-18T07:16:34.193Z,74.19
2018-09-18T07:17:34.227Z,75.24
2018-09-18T07:18:34.258Z,74.48
2018-09-18T07:19:34.290Z,71.97
2018-09-18T07:20:34.318Z,72.88
2018-09-18T07:21:34.348Z,71.72
2018-09-18T07:22:34.380Z,72.68
2018-09-18T07:23:34.413Z,73.07
2018-09-18T07:24:34.443Z,69.73
2018-09-18T07:25:34.472Z,69.51
2018-09-18T07:26:34.503Z,65.27
2018-09-18T07:27:34.534Z,63.79
2018-09-18T07:28:34.566Z,59.98
2018-09-18T07:29:34.597Z,60.33
2018-09-18T07:30:34.628Z,56.97
2018-09-18T07:31:34.657Z,57.39
2018-09-18T07:32:34.690Z,54.50
2018-09-18T07:33:34.722Z,55.08
2018-09-18T07:34:34.752Z,53.15
2018-09-18T07:35:34.784Z,52.76
2018-09-18T07:36:34.813Z,52.30
2018-09-18T07:37:37.472Z,51.72
2018-09-18T07:38:34.888Z,52.93
2018-09-18T07:39:34.915Z,52.95
2018-09-18T07:40:34.947Z,52.47
2018-09-18T07:41:34.982Z,52.56
2018-09-18T07:42:35.013Z,52.37
2018-09-18T07:43:35.050Z,52.30
2018-09-18T07:44:35.082Z,53.00
2018-09-18T07:45:35.121Z,51.98
2018-09-18T07:46:35.153Z,52.40
2018-09-18T07:47:35.188Z,51.43
2018-09-18T07:48:35.227Z,52.28
2018-09-18T07:49:35.259Z,52.95
2018-09-18T07:50:35.299Z,52.30
2018-09-18T07:51:35.328Z,52.01
2018-09-18T07:52:35.364Z,51.65
2018-09-18T07:53:35.400Z,51.35
2018-09-18T07:54:35.437Z,51.26
2018-09-18T07:55:35.470Z,51.35
2018-09-18T07:56:35.527Z,50.70
2018-09-18T07:57:35.552Z,50.31
2018-09-18T07:58:35.580Z,49.58
2018-09-18T07:59:35.619Z,49.46
2018-09-18T08:00:35.653Z,49.73
2018-09-18T08:01:35.692Z,50.24
2018-09-18T08:02:35.731Z,49.56
2018-09-18T08:03:35.768Z,49.66
2018-09-18T08:04:35.801Z,50.24
2018-09-18T08:05:35.844Z,49.39
2018-09-18T08:06:35.879Z,49.49
2018-09-18T08:07:35.914Z,49.39
2018-09-18T08:08:35.958Z,49.19
2018-09-18T08:09:35.991Z,48.63
2018-09-18T08:10:36.028Z,48.61
2018-09-18T08:11:36.067Z,48.54
2018-09-18T08:12:36.103Z,47.86
2018-09-18T08:13:36.142Z,48.27
2018-09-18T08:14:36.177Z,47.30
2018-09-18T08:15:36.216Z,47.88
2018-09-18T08:16:36.253Z,47.30
2018-09-18T08:17:36.292Z,47.20
2018-09-18T08:18:36.351Z,47.69
2018-09-18T08:19:36.523Z,47.20
2018-09-18T08:20:36.409Z,47.10
2018-09-18T08:21:36.445Z,47.20
2018-09-18T08:22:36.491Z,46.64
2018-09-18T08:23:36.733Z,46.34
2018-09-18T08:24:36.557Z,46.32
2018-09-18T08:25:36.703Z,46.64
2018-09-18T08:27:37.200Z,46.05
2018-09-18T08:28:37.034Z,45.78
2018-09-18T08:29:36.961Z,45.49
2018-09-18T08:30:36.798Z,45.68
2018-09-18T08:31:36.839Z,45.22
2018-09-18T08:32:36.906Z,44.44
2018-09-18T08:33:36.920Z,44.64
2018-09-18T08:34:36.944Z,44.37
2018-09-18T08:35:36.985Z,44.37
2018-09-18T08:36:37.037Z,44.44
2018-09-18T08:37:37.059Z,44.37
2018-09-18T08:38:37.107Z,44.37
2018-09-18T08:39:37.155Z,44.19
2018-09-18T08:40:37.206Z,43.04
2018-09-18T08:41:37.215Z,43.22
2018-09-18T08:42:37.259Z,43.33
2018-09-18T08:43:37.309Z,44.07
2018-09-18T08:44:37.334Z,43.53
2018-09-18T08:45:37.370Z,43.22
2018-09-18T08:46:37.414Z,43.24
2018-09-18T08:47:37.451Z,42.75
2018-09-18T08:48:37.489Z,42.75
2018-09-18T08:49:37.530Z,42.85
2018-09-18T08:50:37.565Z,41.80
2018-09-18T08:51:37.666Z,41.89
2018-09-18T08:52:37.649Z,41.42
2018-09-18T08:53:37.729Z,41.60
2018-09-18T08:54:37.781Z,41.91
2018-09-18T08:55:37.781Z,41.25
2018-09-18T08:56:37.817Z,40.58
2018-09-18T08:57:37.843Z,40.39
2018-09-18T08:58:37.884Z,39.69
2018-09-18T08:59:37.920Z,40.19
2018-09-18T09:00:37.962Z,39.82
2018-09-18T09:01:37.998Z,39.23
2018-09-18T09:02:38.040Z,39.33
2018-09-18T09:03:38.096Z,39.33
2018-09-18T09:04:38.133Z,39.70
2018-09-18T09:05:38.165Z,39.33
2018-09-18T09:06:38.198Z,39.14
2018-09-18T09:07:38.319Z,38.75
2018-09-18T09:08:38.325Z,38.47
2018-09-18T09:09:38.323Z,38.76
2018-09-18T09:10:38.418Z,38.08
2018-09-18T09:11:38.408Z,38.57
2018-09-18T09:12:38.448Z,38.39
2018-09-18T09:13:38.475Z,38.00
2018-09-18T09:14:38.629Z,37.90
2018-09-18T09:15:38.569Z,37.43
2018-09-18T09:16:38.593Z,37.52
2018-09-18T09:17:38.657Z,37.43
2018-09-18T09:18:39.001Z,37.05
2018-09-18T09:19:38.718Z,37.02
2018-09-18T09:20:38.780Z,37.51
2018-09-18T09:21:38.803Z,37.71
2018-09-18T09:22:38.926Z,38.18
2018-09-18T09:23:38.883Z,37.41
2018-09-18T09:24:38.913Z,37.13
2018-09-18T09:25:38.956Z,37.12
2018-09-18T09:26:39.098Z,37.41
2018-09-18T09:27:39.129Z,37.23
2018-09-18T09:28:39.078Z,36.94
2018-09-18T09:29:39.201Z,37.04
2018-09-18T09:30:39.166Z,36.96
2018-09-18T09:31:39.204Z,35.97
2018-09-18T09:32:39.248Z,36.65
2018-09-18T09:33:39.308Z,36.84
2018-09-18T09:34:39.328Z,36.27
2018-09-18T09:35:39.373Z,36.27
2018-09-18T09:36:39.734Z,35.80
2018-09-18T09:37:39.452Z,35.60
2018-09-18T09:38:39.493Z,35.89
2018-09-18T09:39:39.529Z,36.19
2018-09-18T09:40:39.568Z,35.80
2018-09-18T09:41:39.610Z,35.50
2018-09-18T09:42:39.661Z,35.89
2018-09-18T09:43:39.697Z,35.42
2018-09-18T09:44:40.539Z,35.34
2018-09-18T09:45:39.773Z,34.78
2018-09-18T09:46:42.430Z,34.85
2018-09-18T09:48:40.100Z,35.13
2018-09-18T09:49:39.962Z,34.93
2018-09-18T09:50:39.972Z,34.87
2018-09-18T09:52:27.589Z,34.00
2018-09-18T09:53:27.631Z,34.39
2018-09-18T09:54:27.667Z,34.16
2018-09-18T09:55:27.711Z,35.29
2018-09-18T09:56:27.752Z,35.89
2018-09-18T09:57:31.630Z,35.41
2018-09-18T09:58:27.834Z,35.23
2018-09-18T09:59:27.874Z,34.46
2018-09-18T10:00:27.919Z,34.69
2018-09-18T10:01:28.570Z,34.56
2018-09-18T10:02:27.997Z,34.66
2018-09-18T10:03:28.041Z,35.50
2018-09-18T10:04:28.081Z,35.82
2018-09-18T10:05:28.121Z,35.24
2018-09-18T10:06:28.165Z,35.54
2018-09-18T10:07:28.203Z,35.82
2018-09-18T10:08:28.245Z,35.80
2018-09-18T10:09:28.289Z,36.09
2018-09-18T10:10:28.371Z,36.39
2018-09-18T10:11:28.373Z,35.60
2018-09-18T10:12:28.412Z,36.68
2018-09-18T10:13:28.451Z,36.58
2018-09-18T10:14:28.514Z,36.11
2018-09-18T10:15:28.538Z,36.13
2018-09-18T10:16:28.599Z,35.75
2018-09-18T10:17:28.621Z,36.52
2018-09-18T10:18:28.664Z,36.24
2018-09-18T10:19:28.703Z,36.52
2018-09-18T10:20:28.742Z,36.52
2018-09-18T10:21:28.784Z,36.11
2018-09-18T10:22:28.825Z,36.62
2018-09-18T10:23:28.892Z,37.29
2018-09-18T10:24:28.907Z,37.19
2018-09-18T10:25:28.949Z,37.56
2018-09-18T10:26:29.085Z,37.48
2018-09-18T10:27:29.043Z,37.05
2018-09-18T10:28:29.073Z,36.15
2018-09-18T10:29:29.115Z,36.55
2018-09-18T10:30:29.170Z,36.36
2018-09-18T10:31:29.218Z,36.54
2018-09-18T10:32:29.307Z,37.38
2018-09-18T10:33:29.295Z,37.30
2018-09-18T10:34:29.319Z,36.91
2018-09-18T10:35:29.364Z,36.74
2018-09-18T10:36:29.404Z,36.55
2018-09-18T10:37:29.547Z,36.65
2018-09-18T10:38:29.505Z,36.57
2018-09-18T10:39:29.588Z,35.80
2018-09-18T10:40:29.570Z,35.88
2018-09-18T10:41:29.801Z,35.59
2018-09-18T10:42:29.652Z,36.28
2018-09-18T10:43:29.727Z,36.28
2018-09-18T10:44:29.738Z,36.46
2018-09-18T10:45:29.777Z,36.46
2018-09-18T10:46:29.819Z,37.13
2018-09-18T10:47:29.869Z,37.34
2018-09-18T10:48:29.901Z,37.32
2018-09-18T10:49:30.122Z,37.72
2018-09-18T10:50:30.003Z,37.42
2018-09-18T10:51:30.034Z,37.54
2018-09-18T10:52:30.075Z,36.77
2018-09-18T10:53:30.109Z,36.08
2018-09-18T10:54:30.151Z,36.77
2018-09-18T10:55:30.275Z,37.54
2018-09-18T10:56:30.235Z,37.44
2018-09-18T10:57:30.274Z,37.46
2018-09-18T10:58:30.315Z,37.48
2018-09-18T10:59:30.357Z,37.55
2018-09-18T11:00:30.400Z,38.52
2018-09-18T11:01:30.457Z,38.80
2018-09-18T11:02:30.491Z,39.31
2018-09-18T11:03:30.539Z,38.90
2018-09-18T11:04:30.597Z,39.58
2018-09-18T11:05:30.603Z,38.44
2018-09-18T11:06:30.666Z,38.62
2018-09-18T11:07:30.687Z,39.76
2018-09-18T11:08:30.748Z,40.17
2018-09-18T11:09:30.772Z,39.31
2018-09-18T11:10:30.876Z,39.39
2018-09-18T11:11:30.924Z,39.95
2018-09-18T11:12:30.917Z,39.76
2018-09-18T11:13:31.009Z,40.08
2018-09-18T11:14:31.004Z,40.17
2018-09-18T11:15:31.115Z,39.68
2018-09-18T11:16:31.120Z,41.11
2018-09-18T11:17:31.098Z,41.11
2018-09-18T11:18:31.156Z,41.02
2018-09-18T11:19:31.261Z,41.51
2018-09-18T11:20:31.245Z,41.03
2018-09-18T11:21:31.272Z,40.84
2018-09-18T11:22:31.498Z,41.03
2018-09-18T11:23:31.429Z,41.51
2018-09-18T11:24:31.418Z,41.51
2018-09-18T11:25:31.467Z,41.63
2018-09-18T11:26:31.471Z,42.10
2018-09-18T11:27:31.509Z,41.45
2018-09-18T11:28:31.551Z,41.08
2018-09-18T11:29:31.591Z,41.43
2018-09-18T11:30:31.631Z,41.35
2018-09-18T11:31:31.730Z,41.08
2018-09-18T11:32:31.741Z,40.70
2018-09-18T11:33:31.783Z,40.78
2018-09-18T11:34:31.809Z,41.55
2018-09-18T11:35:31.837Z,41.45
2018-09-18T11:36:32.079Z,41.47
2018-09-18T11:37:31.915Z,40.90
2018-09-18T11:38:31.957Z,40.72
2018-09-18T11:39:31.998Z,40.11
2018-09-18T11:40:32.037Z,40.88
2018-09-18T11:41:32.080Z,41.17
2018-09-18T11:42:32.125Z,41.27
2018-09-18T11:43:32.160Z,41.25
2018-09-18T11:44:32.202Z,41.53
2018-09-18T11:45:32.302Z,41.27
2018-09-18T11:46:32.324Z,41.09
2018-09-18T11:47:32.324Z,40.80
2018-09-18T11:48:32.363Z,40.90
2018-09-18T11:49:32.406Z,41.00
2018-09-18T11:50:32.445Z,40.45
2018-09-18T11:51:32.487Z,39.52
2018-09-18T11:52:32.527Z,41.25
2018-09-18T11:53:32.569Z,41.45
2018-09-18T11:54:32.606Z,41.08
2018-09-18T11:55:32.647Z,41.17
2018-09-18T11:56:32.692Z,39.42
2018-09-18T11:57:32.729Z,39.11
2018-09-18T11:58:32.772Z,38.84
2018-09-18T11:59:32.809Z,38.60
2018-09-18T12:00:32.853Z,39.56
2018-09-18T12:01:32.893Z,40.17
2018-09-18T12:02:32.956Z,39.98
2018-09-18T12:03:32.972Z,39.60
2018-09-18T12:04:33.036Z,38.62
2018-09-18T12:05:33.055Z,38.15
2018-09-18T12:06:33.095Z,37.97
2018-09-18T12:07:33.136Z,36.71
2018-09-18T12:08:33.179Z,36.82
2018-09-18T12:09:33.311Z,36.55
2018-09-18T12:10:33.255Z,36.35
2018-09-18T12:11:33.414Z,36.43
2018-09-18T12:12:33.336Z,37.48
2018-09-18T12:13:33.377Z,38.15
2018-09-18T12:14:33.466Z,38.32
2018-09-18T12:15:33.461Z,38.13
2018-09-18T12:16:33.499Z,37.63
2018-09-18T12:17:33.542Z,36.57
2018-09-18T12:18:33.582Z,35.61
2018-09-18T12:19:33.619Z,36.38
2018-09-18T12:20:33.674Z,36.55
2018-09-18T12:21:33.704Z,36.52
2018-09-18T12:22:33.809Z,37.42
2018-09-18T12:23:33.782Z,37.52
2018-09-18T12:24:33.825Z,35.97
2018-09-18T12:25:33.866Z,35.85
2018-09-18T12:26:33.903Z,36.44
2018-09-18T12:27:33.996Z,36.46
2018-09-18T12:28:33.994Z,35.20
2018-09-18T12:29:34.026Z,36.26
2018-09-18T12:30:34.066Z,35.69
2018-09-18T12:31:34.104Z,35.35
2018-09-18T12:32:34.144Z,35.03
2018-09-18T12:33:34.185Z,35.35
2018-09-18T12:34:34.226Z,34.48
2018-09-18T12:35:34.440Z,34.20
2018-09-18T12:36:34.304Z,33.79
2018-09-18T12:37:34.348Z,33.70
2018-09-18T12:38:34.387Z,34.36
2018-09-18T12:39:34.429Z,34.18
2018-09-18T12:40:34.464Z,34.08
2018-09-18T12:41:34.568Z,34.48
2018-09-18T12:42:34.684Z,33.51
2018-09-18T12:43:34.587Z,33.49
2018-09-18T12:44:34.629Z,33.61
2018-09-18T12:45:34.667Z,32.14
2018-09-18T12:46:34.706Z,32.26
2018-09-18T12:47:34.748Z,31.86
2018-09-18T12:48:34.828Z,32.42
2018-09-18T12:49:34.974Z,32.60
2018-09-18T12:50:34.927Z,32.23
2018-09-18T12:51:34.911Z,32.11
2018-09-18T12:52:34.951Z,33.82
2018-09-18T12:53:35.018Z,34.33
2018-09-18T12:54:35.029Z,33.75
2018-09-18T12:55:35.069Z,33.84